X  Fermer Données météorologiques d'aviation de Metar     LGRX Patras Araxos Agamemnon Airport
Température
29°C Température
23°C Point de rosée
70% Humidité



Vent
0 M/S
0 MPH
0 KM/H
0 KTS



Calme
N
Conditions actuelles

Partiellement nuageux Partiellement nuageux
Pression 1008.81 (hPa) - 29.79 (inHg)
Visibilité 6 (mile) - 9.7 (km)
Aéroport
Code de l'aéroport LGRX

Emplacement: Patras Araxos Agamemnon Airport
Distance: 108 (km)

Metar:
LGRX 141750Z 00000KT 9999 FEW025 29/23 Q1009

Temps: 14-07-2024 20:50 EEST